createdAt,value
2022-10-13T00:00:49.387Z,9.13
2022-10-13T00:02:53.112Z,10.07
2022-10-13T00:04:56.460Z,8.60
2022-10-13T00:07:00.771Z,9.67
2022-10-13T00:09:04.785Z,10.87
2022-10-13T00:11:12.790Z,10.00
2022-10-13T00:13:16.443Z,12.80
2022-10-13T00:15:20.916Z,10.03
2022-10-13T00:17:25.543Z,10.73
2022-10-13T00:19:30.453Z,10.10
2022-10-13T00:21:33.879Z,12.33
2022-10-13T00:23:37.829Z,12.57
2022-10-13T00:25:45.256Z,12.10
2022-10-13T00:27:48.573Z,16.23
2022-10-13T00:29:51.867Z,15.13
2022-10-13T00:31:55.232Z,12.43
2022-10-13T00:34:01.158Z,12.30
2022-10-13T00:36:07.390Z,14.23
2022-10-13T00:38:11.333Z,12.23
2022-10-13T00:40:14.695Z,11.87
2022-10-13T00:42:18.377Z,12.10
2022-10-13T00:44:59.859Z,10.97
2022-10-13T00:47:03.239Z,11.50
2022-10-13T00:49:11.729Z,12.20
2022-10-13T00:51:21.422Z,11.47
2022-10-13T00:53:29.911Z,12.40
2022-10-13T00:55:35.733Z,12.43
2022-10-13T00:57:42.984Z,12.17
2022-10-13T00:59:46.357Z,10.57
2022-10-13T01:01:50.081Z,11.33
2022-10-13T01:03:53.427Z,16.90
2022-10-13T01:06:00.709Z,15.20
2022-10-13T01:08:04.082Z,12.33
2022-10-13T01:10:08.262Z,12.27
2022-10-13T01:12:25.195Z,12.63
2022-10-13T01:14:35.442Z,11.97
2022-10-13T01:16:45.565Z,12.80
2022-10-13T01:18:56.616Z,13.00
2022-10-13T01:21:19.359Z,12.00
2022-10-13T01:23:45.309Z,9.03
2022-10-13T01:26:07.856Z,14.80
2022-10-13T01:28:35.006Z,11.73
2022-10-13T01:30:44.500Z,12.00
2022-10-13T01:33:14.987Z,11.90
2022-10-13T01:35:22.455Z,11.70
2022-10-13T01:37:32.552Z,9.17
2022-10-13T01:39:43.093Z,10.60
2022-10-13T01:41:52.601Z,13.57
2022-10-13T01:44:01.996Z,14.53
2022-10-13T01:46:11.212Z,9.83
2022-10-13T01:48:16.997Z,10.60
2022-10-13T01:50:25.773Z,12.60
2022-10-13T01:52:34.363Z,14.57
2022-10-13T01:54:37.843Z,12.70
2022-10-13T01:56:41.139Z,10.57
2022-10-13T01:58:45.685Z,9.40
2022-10-13T02:01:04.171Z,12.97
2022-10-13T02:03:16.273Z,13.60
2022-10-13T02:05:30.473Z,10.47
2022-10-13T02:07:40.205Z,11.40
2022-10-13T02:09:56.209Z,10.80
2022-10-13T02:12:06.481Z,13.10
2022-10-13T02:14:15.529Z,13.50
2022-10-13T02:16:21.427Z,12.23
2022-10-13T02:18:31.220Z,13.37
2022-10-13T02:20:35.045Z,16.03
2022-10-13T02:22:46.621Z,14.37
2022-10-13T02:24:50.079Z,12.93
2022-10-13T02:26:55.178Z,12.47
2022-10-13T02:28:58.558Z,17.20
2022-10-13T02:31:02.475Z,11.70
2022-10-13T02:33:05.871Z,13.37
2022-10-13T02:35:11.683Z,24.90
2022-10-13T02:37:15.183Z,14.33
2022-10-13T02:39:18.800Z,12.13
2022-10-13T02:41:22.111Z,13.50
2022-10-13T02:43:25.461Z,16.83
2022-10-13T02:45:28.736Z,13.73
2022-10-13T02:47:32.233Z,15.13
2022-10-13T02:49:37.426Z,19.07
2022-10-13T02:51:42.085Z,17.30
2022-10-13T02:53:45.406Z,17.43
2022-10-13T02:55:48.863Z,18.80
2022-10-13T02:57:52.180Z,17.00
2022-10-13T02:59:55.467Z,15.77
2022-10-13T03:01:59.265Z,16.67
2022-10-13T03:04:02.741Z,17.80
2022-10-13T03:06:07.219Z,11.50
2022-10-13T03:08:12.356Z,25.10
2022-10-13T03:10:17.345Z,16.20
2022-10-13T03:12:21.013Z,14.50
2022-10-13T03:14:24.499Z,17.17
2022-10-13T03:16:27.830Z,13.57
2022-10-13T03:18:31.439Z,14.10
2022-10-13T03:20:34.761Z,18.33
2022-10-13T03:22:38.191Z,19.20
2022-10-13T03:24:42.852Z,13.93
2022-10-13T03:26:46.208Z,15.50
2022-10-13T03:28:51.231Z,16.27
2022-10-13T03:31:01.379Z,14.13
2022-10-13T03:33:06.283Z,13.63
2022-10-13T03:35:10.092Z,15.27
2022-10-13T03:37:13.396Z,13.50
2022-10-13T03:39:17.987Z,13.20
2022-10-13T03:41:22.739Z,10.10
2022-10-13T03:43:29.102Z,12.10
2022-10-13T03:45:32.422Z,14.30
2022-10-13T03:47:36.694Z,11.33
2022-10-13T03:49:39.989Z,11.70
2022-10-13T03:51:43.300Z,13.40
2022-10-13T03:53:46.940Z,15.27
2022-10-13T03:55:51.737Z,12.97
2022-10-13T03:57:56.580Z,13.53
2022-10-13T03:59:59.887Z,11.40
2022-10-13T04:02:03.379Z,12.40
2022-10-13T04:04:07.866Z,14.87
2022-10-13T04:06:12.005Z,12.90
2022-10-13T04:08:15.746Z,13.37
2022-10-13T04:10:19.020Z,10.40
2022-10-13T04:12:22.582Z,14.13
2022-10-13T04:14:27.823Z,11.93
2022-10-13T04:16:35.678Z,14.13
2022-10-13T04:18:44.639Z,10.63
2022-10-13T04:20:48.478Z,12.87
2022-10-13T04:22:51.886Z,16.40
2022-10-13T04:24:55.180Z,10.60
2022-10-13T04:26:58.535Z,16.90
2022-10-13T04:29:03.160Z,15.93
2022-10-13T04:31:07.867Z,11.77
2022-10-13T04:33:12.198Z,12.23
2022-10-13T04:35:15.555Z,13.70
2022-10-13T04:37:18.864Z,12.33
2022-10-13T04:39:22.161Z,12.63
2022-10-13T04:41:26.851Z,16.83
2022-10-13T04:43:30.152Z,17.30
2022-10-13T04:45:36.120Z,17.97
2022-10-13T04:47:41.320Z,16.53
2022-10-13T04:49:44.671Z,16.40
2022-10-13T04:51:48.035Z,15.93
2022-10-13T04:53:56.427Z,14.37
2022-10-13T04:56:02.414Z,15.20
2022-10-13T04:58:05.819Z,17.40
2022-10-13T05:00:10.102Z,16.00
2022-10-13T05:02:13.480Z,15.23
2022-10-13T05:04:18.703Z,22.13
2022-10-13T05:06:24.242Z,28.03
2022-10-13T05:08:33.110Z,24.83
2022-10-13T05:10:36.425Z,19.10
2022-10-13T05:12:39.794Z,15.80
2022-10-13T05:14:43.083Z,14.90
2022-10-13T05:16:46.382Z,17.07
2022-10-13T05:18:54.264Z,14.60
2022-10-13T05:21:07.469Z,15.63
2022-10-13T05:23:14.101Z,17.17
2022-10-13T05:25:17.758Z,18.20
2022-10-13T05:27:24.168Z,12.93
2022-10-13T05:29:27.525Z,14.97
2022-10-13T05:31:32.293Z,14.93
2022-10-13T05:33:35.807Z,14.20
2022-10-13T05:35:39.125Z,12.20
2022-10-13T05:37:43.975Z,17.23
2022-10-13T05:39:48.965Z,15.40
2022-10-13T05:41:52.386Z,14.90
2022-10-13T05:43:59.774Z,17.07
2022-10-13T05:46:03.136Z,22.33
2022-10-13T05:48:07.113Z,15.73
2022-10-13T05:50:10.825Z,16.67
2022-10-13T05:52:16.573Z,16.93
2022-10-13T05:54:25.059Z,14.87
2022-10-13T05:56:33.708Z,15.50
2022-10-13T05:58:41.214Z,11.80
2022-10-13T06:00:45.758Z,11.00
2022-10-13T06:02:54.619Z,12.47
2022-10-13T06:04:58.805Z,18.00
2022-10-13T06:07:02.717Z,16.53
2022-10-13T06:09:06.019Z,17.50
2022-10-13T06:11:11.009Z,16.13
2022-10-13T06:13:14.340Z,13.97
2022-10-13T06:15:17.855Z,12.43
2022-10-13T06:17:21.143Z,13.60
2022-10-13T06:19:24.865Z,13.50
2022-10-13T06:21:28.266Z,12.10
2022-10-13T06:23:31.558Z,16.83
2022-10-13T06:25:34.888Z,15.17
2022-10-13T06:27:41.466Z,12.10
2022-10-13T06:29:44.802Z,14.40
2022-10-13T06:31:48.260Z,11.27
2022-10-13T06:33:51.535Z,16.97
2022-10-13T06:35:54.919Z,12.10
2022-10-13T06:37:58.505Z,12.60
2022-10-13T06:40:01.840Z,14.23
2022-10-13T06:42:05.340Z,11.70
2022-10-13T06:44:15.449Z,20.27
2022-10-13T06:46:18.884Z,13.17
2022-10-13T06:48:22.262Z,14.80
2022-10-13T06:50:26.178Z,15.60
2022-10-13T06:52:29.470Z,12.00
2022-10-13T06:54:32.848Z,14.60
2022-10-13T06:56:36.209Z,13.40
2022-10-13T06:58:46.678Z,13.80
2022-10-13T07:00:51.473Z,11.73
2022-10-13T07:02:54.802Z,17.30
2022-10-13T07:04:58.115Z,17.77
2022-10-13T07:07:01.498Z,15.90
2022-10-13T07:09:05.627Z,19.77
2022-10-13T07:11:15.335Z,16.70
2022-10-13T07:13:19.364Z,17.13
2022-10-13T07:15:24.477Z,16.10
2022-10-13T07:17:30.026Z,16.60
2022-10-13T07:19:33.374Z,19.03
2022-10-13T07:21:36.811Z,14.20
2022-10-13T07:23:40.173Z,16.77
2022-10-13T07:25:43.490Z,17.83
2022-10-13T07:27:46.786Z,16.30
2022-10-13T07:29:50.184Z,12.80
2022-10-13T07:31:53.505Z,27.33
2022-10-13T07:34:00.107Z,12.00
2022-10-13T07:36:05.178Z,15.20
2022-10-13T07:38:09.101Z,14.83
2022-10-13T07:40:12.941Z,16.37
2022-10-13T07:42:17.137Z,16.70
2022-10-13T07:44:20.464Z,16.20
2022-10-13T07:46:24.114Z,14.07
2022-10-13T07:48:27.763Z,11.93
2022-10-13T07:50:34.274Z,14.47
2022-10-13T07:52:37.973Z,15.10
2022-10-13T07:54:41.288Z,14.90
2022-10-13T07:56:44.603Z,16.10
2022-10-13T07:58:49.272Z,16.00
2022-10-13T08:00:57.504Z,14.60
2022-10-13T08:03:01.673Z,17.30
2022-10-13T08:05:05.626Z,16.47
2022-10-13T08:07:11.102Z,11.97
2022-10-13T08:09:14.509Z,14.17
2022-10-13T08:11:18.694Z,11.83
2022-10-13T08:13:22.425Z,15.03
2022-10-13T08:15:25.867Z,18.50
2022-10-13T08:17:29.234Z,20.43
2022-10-13T08:19:32.542Z,18.23
2022-10-13T08:21:57.494Z,16.30
2022-10-13T08:24:01.930Z,19.43
2022-10-13T08:26:05.380Z,16.83
2022-10-13T08:28:19.834Z,29.33
2022-10-13T08:30:23.677Z,13.63
2022-10-13T08:32:27.083Z,14.10
2022-10-13T08:34:30.433Z,18.37
2022-10-13T08:36:33.870Z,13.80
2022-10-13T08:38:37.278Z,18.47
2022-10-13T08:40:46.794Z,14.70
2022-10-13T08:42:50.338Z,12.47
2022-10-13T08:45:22.154Z,17.10
2022-10-13T08:47:40.301Z,16.00
2022-10-13T08:49:47.131Z,12.77
2022-10-13T08:51:50.631Z,22.63
2022-10-13T08:53:54.076Z,22.20
2022-10-13T08:56:00.489Z,14.57
2022-10-13T08:58:13.778Z,16.60
2022-10-13T09:00:17.616Z,18.00
2022-10-13T09:02:30.504Z,17.33
2022-10-13T09:04:36.558Z,14.60
2022-10-13T09:06:43.834Z,15.30
2022-10-13T09:08:54.281Z,13.03
2022-10-13T09:11:00.681Z,12.10
2022-10-13T09:13:04.101Z,15.63
2022-10-13T09:15:09.856Z,13.80
2022-10-13T09:17:20.036Z,14.60
2022-10-13T09:19:27.318Z,13.70
2022-10-13T09:21:30.912Z,14.20
2022-10-13T09:23:39.486Z,13.67
2022-10-13T09:25:46.574Z,18.03
2022-10-13T09:27:54.986Z,13.53
2022-10-13T09:29:58.363Z,12.50
2022-10-13T09:32:16.099Z,12.27
2022-10-13T09:34:26.234Z,15.13
2022-10-13T09:36:35.520Z,12.53
2022-10-13T09:38:41.126Z,10.83
2022-10-13T09:40:56.885Z,9.87
2022-10-13T09:43:03.340Z,11.77
2022-10-13T09:45:16.073Z,12.83
2022-10-13T09:47:21.988Z,13.33
2022-10-13T09:49:37.357Z,14.30
2022-10-13T09:51:46.621Z,11.47
2022-10-13T09:53:55.962Z,10.97
2022-10-13T09:56:10.745Z,11.97
2022-10-13T09:58:20.761Z,11.33
2022-10-13T10:00:26.254Z,10.40
2022-10-13T10:02:34.916Z,9.57
2022-10-13T10:04:42.951Z,11.20
2022-10-13T10:06:46.975Z,11.20
2022-10-13T10:09:04.832Z,23.90
2022-10-13T10:11:13.303Z,11.60
2022-10-13T10:13:18.126Z,11.00
2022-10-13T10:15:25.438Z,13.73
2022-10-13T10:17:37.175Z,12.40
2022-10-13T10:19:54.384Z,14.10
2022-10-13T10:22:05.368Z,12.30
2022-10-13T10:24:23.162Z,10.70
2022-10-13T10:26:39.669Z,12.43
2022-10-13T10:29:07.016Z,10.83
2022-10-13T10:31:24.151Z,11.03
2022-10-13T10:33:35.570Z,8.63
2022-10-13T10:35:45.240Z,13.77
2022-10-13T10:38:05.434Z,10.80
2022-10-13T10:40:23.348Z,10.07
2022-10-13T10:42:52.320Z,17.43
2022-10-13T10:44:58.694Z,11.20
2022-10-13T10:47:07.109Z,14.67
2022-10-13T10:49:16.686Z,12.03
2022-10-13T10:51:20.676Z,9.50
2022-10-13T10:53:33.992Z,10.13
2022-10-13T10:55:50.795Z,10.50
2022-10-13T10:58:03.144Z,9.73
2022-10-13T11:00:14.433Z,14.73
2022-10-13T11:02:37.550Z,13.00
2022-10-13T11:04:43.361Z,12.10
2022-10-13T11:06:46.924Z,12.03
2022-10-13T11:08:51.163Z,12.63
2022-10-13T11:11:34.814Z,21.27
2022-10-13T11:13:52.219Z,11.33
2022-10-13T11:15:56.945Z,12.60
2022-10-13T11:18:00.241Z,10.60
2022-10-13T11:20:42.211Z,12.83
2022-10-13T11:23:23.969Z,11.77
2022-10-13T11:25:39.790Z,14.10
2022-10-13T11:27:45.225Z,12.90
2022-10-13T11:29:54.997Z,10.83
2022-10-13T11:31:59.726Z,10.47
2022-10-13T11:34:04.631Z,9.73
2022-10-13T11:36:47.985Z,9.93
2022-10-13T11:38:57.130Z,15.27
2022-10-13T11:41:14.569Z,17.70
2022-10-13T11:43:36.576Z,11.43
2022-10-13T11:45:52.144Z,9.20
2022-10-13T11:48:40.046Z,11.60
2022-10-13T11:50:54.969Z,9.97
2022-10-13T11:53:12.540Z,10.17
2022-10-13T11:55:19.796Z,8.63
2022-10-13T11:57:26.427Z,9.17
2022-10-13T11:59:32.210Z,8.77
2022-10-13T12:01:35.558Z,13.23
2022-10-13T12:03:40.716Z,9.30
2022-10-13T12:05:51.468Z,9.23
2022-10-13T12:07:57.918Z,11.40
2022-10-13T12:10:01.629Z,11.00
2022-10-13T12:12:13.589Z,11.83
2022-10-13T12:14:23.028Z,13.27
2022-10-13T12:16:27.593Z,11.50
2022-10-13T12:18:34.129Z,9.20
2022-10-13T12:20:37.536Z,9.07
2022-10-13T12:22:48.482Z,10.90
2022-10-13T12:24:59.727Z,9.73
2022-10-13T12:27:11.829Z,10.67
2022-10-13T12:29:16.024Z,8.20
2022-10-13T12:31:22.091Z,10.37
2022-10-13T12:33:29.679Z,7.77
2022-10-13T12:35:34.777Z,10.03
2022-10-13T12:37:38.306Z,7.73
2022-10-13T12:39:43.450Z,8.83
2022-10-13T12:41:48.957Z,7.20
2022-10-13T12:43:53.394Z,5.70
2022-10-13T12:45:56.848Z,6.87
2022-10-13T12:48:00.320Z,6.77
2022-10-13T12:50:37.843Z,7.37
2022-10-13T12:52:41.306Z,6.37
2022-10-13T12:54:51.315Z,9.47
2022-10-13T12:56:58.460Z,8.30
2022-10-13T12:59:02.044Z,6.20
2022-10-13T13:01:09.942Z,7.07
2022-10-13T13:03:23.960Z,8.23
2022-10-13T13:05:32.140Z,6.63
2022-10-13T13:07:38.579Z,5.73
2022-10-13T13:09:41.868Z,11.17
2022-10-13T13:11:46.787Z,6.23
2022-10-13T13:13:50.238Z,7.90
2022-10-13T13:15:54.123Z,6.13
2022-10-13T13:18:39.547Z,7.47
2022-10-13T13:20:42.847Z,5.57
2022-10-13T13:22:46.191Z,6.13
2022-10-13T13:24:51.693Z,5.37
2022-10-13T13:26:57.714Z,6.33
2022-10-13T13:29:01.077Z,9.17
2022-10-13T13:31:04.669Z,9.70
2022-10-13T13:35:18.537Z,13.27
2022-10-13T13:37:27.242Z,7.47
2022-10-13T13:39:30.541Z,8.30
2022-10-13T13:41:33.919Z,7.33
2022-10-13T13:43:39.008Z,8.33
2022-10-13T13:45:42.452Z,9.63
2022-10-13T13:47:46.558Z,7.70
2022-10-13T13:49:51.367Z,10.30
2022-10-13T13:51:54.663Z,10.60
2022-10-13T13:53:57.965Z,7.27
2022-10-13T13:56:01.303Z,7.33
2022-10-13T13:58:04.753Z,6.90
2022-10-13T14:00:12.619Z,6.33
2022-10-13T14:02:20.691Z,9.50
2022-10-13T14:04:24.069Z,8.53
2022-10-13T14:06:27.526Z,11.40
2022-10-13T14:08:31.463Z,8.87
2022-10-13T14:10:35.784Z,6.67
2022-10-13T14:12:39.648Z,7.90
2022-10-13T14:14:42.977Z,8.23
2022-10-13T14:16:48.367Z,9.87
2022-10-13T14:18:51.656Z,8.13
2022-10-13T14:20:54.977Z,10.03
2022-10-13T14:22:58.256Z,10.77
2022-10-13T14:25:01.560Z,9.17
2022-10-13T14:27:04.954Z,9.47
2022-10-13T14:29:08.331Z,12.30
2022-10-13T14:31:12.310Z,13.27
2022-10-13T14:33:19.642Z,10.87
2022-10-13T14:35:22.987Z,10.70
2022-10-13T14:37:31.840Z,11.60
2022-10-13T14:39:36.423Z,11.60
2022-10-13T14:41:39.919Z,11.27
2022-10-13T14:43:43.225Z,10.23
2022-10-13T14:45:46.511Z,13.50
2022-10-13T14:47:53.165Z,10.80
2022-10-13T14:49:57.808Z,12.17
2022-10-13T14:52:01.115Z,14.10
2022-10-13T14:54:06.056Z,12.70
2022-10-13T14:56:17.978Z,11.97
2022-10-13T14:58:25.780Z,10.57
2022-10-13T15:00:29.246Z,11.70
2022-10-13T15:02:32.866Z,11.40
2022-10-13T15:04:36.150Z,11.33
2022-10-13T15:06:41.429Z,14.30
2022-10-13T15:08:45.844Z,15.37
2022-10-13T15:10:49.135Z,23.20
2022-10-13T15:12:52.438Z,16.73
2022-10-13T15:14:55.746Z,12.07
2022-10-13T15:16:59.043Z,14.83
2022-10-13T15:19:03.460Z,11.57
2022-10-13T15:21:07.130Z,13.90
2022-10-13T15:23:12.349Z,11.13
2022-10-13T15:25:15.731Z,11.33
2022-10-13T15:27:19.165Z,11.63
2022-10-13T15:29:22.686Z,15.33
2022-10-13T15:31:26.286Z,12.30
2022-10-13T15:33:29.856Z,10.57
2022-10-13T15:35:33.183Z,13.63
2022-10-13T15:37:36.542Z,17.03
2022-10-13T15:39:41.210Z,16.27
2022-10-13T15:41:44.586Z,16.03
2022-10-13T15:43:47.925Z,12.10
2022-10-13T15:45:56.807Z,12.27
2022-10-13T15:48:00.174Z,13.17
2022-10-13T15:50:03.652Z,19.40
2022-10-13T15:52:07.174Z,20.40
2022-10-13T15:54:10.473Z,16.20
2022-10-13T15:56:15.653Z,12.43
2022-10-13T15:58:19.473Z,19.53
2022-10-13T16:00:22.961Z,14.97
2022-10-13T16:02:26.614Z,13.47
2022-10-13T16:04:34.854Z,12.57
2022-10-13T16:06:40.565Z,13.27
2022-10-13T16:08:44.721Z,13.23
2022-10-13T16:10:48.043Z,12.70
2022-10-13T16:12:52.698Z,14.30
2022-10-13T16:14:56.107Z,11.93
2022-10-13T16:16:59.443Z,13.53
2022-10-13T16:19:02.787Z,14.90
2022-10-13T16:21:12.359Z,12.30
2022-10-13T16:23:19.202Z,13.10
2022-10-13T16:25:22.513Z,16.60
2022-10-13T16:27:25.839Z,12.97
2022-10-13T16:29:30.669Z,12.20
2022-10-13T16:31:34.125Z,11.53
2022-10-13T16:33:37.751Z,12.17
2022-10-13T16:35:41.064Z,9.53
2022-10-13T16:37:45.809Z,11.57
2022-10-13T16:39:51.872Z,19.60
2022-10-13T16:41:55.365Z,12.50
2022-10-13T16:44:01.101Z,12.10
2022-10-13T16:46:08.144Z,14.33
2022-10-13T16:48:11.631Z,12.87
2022-10-13T16:50:14.919Z,13.53
2022-10-13T16:52:18.233Z,14.40
2022-10-13T16:54:24.613Z,12.33
2022-10-13T16:56:28.901Z,11.87
2022-10-13T16:58:32.400Z,11.80
2022-10-13T17:00:38.784Z,12.50
2022-10-13T17:02:43.527Z,13.87
2022-10-13T17:04:46.833Z,13.87
2022-10-13T17:06:50.111Z,11.10
2022-10-13T17:08:53.427Z,11.27
2022-10-13T17:10:58.450Z,15.80
2022-10-13T17:13:02.005Z,12.83
2022-10-13T17:15:09.663Z,13.33
2022-10-13T17:17:15.309Z,15.83
2022-10-13T17:19:19.992Z,11.77
2022-10-13T17:21:23.540Z,14.63
2022-10-13T17:23:27.914Z,13.30
2022-10-13T17:25:31.673Z,12.47
2022-10-13T17:27:36.157Z,15.17
2022-10-13T17:29:39.482Z,11.27
2022-10-13T17:31:43.385Z,13.00
2022-10-13T17:33:47.635Z,14.27
2022-10-13T17:35:52.778Z,12.30
2022-10-13T17:37:56.055Z,10.33
2022-10-13T17:39:59.418Z,12.77
2022-10-13T17:42:02.922Z,10.40
2022-10-13T17:44:06.566Z,10.53
2022-10-13T17:46:35.157Z,15.03
2022-10-13T17:48:35.697Z,11.80
2022-10-13T17:50:39.012Z,13.37
2022-10-13T17:52:43.722Z,11.27
2022-10-13T17:54:47.215Z,13.00
2022-10-13T17:56:51.479Z,12.00
2022-10-13T17:58:55.402Z,11.20
2022-10-13T18:01:13.101Z,15.43
2022-10-13T18:03:16.877Z,17.40
2022-10-13T18:05:20.304Z,15.30
2022-10-13T18:07:23.853Z,15.63
2022-10-13T18:09:28.691Z,16.87
2022-10-13T18:11:32.067Z,17.47
2022-10-13T18:13:36.231Z,17.43
2022-10-13T18:15:40.461Z,15.70
2022-10-13T18:17:43.788Z,15.03
2022-10-13T18:19:49.097Z,14.63
2022-10-13T18:21:53.190Z,12.30
2022-10-13T18:23:57.758Z,11.13
2022-10-13T18:26:03.492Z,14.70
2022-10-13T18:28:06.902Z,10.70
2022-10-13T18:30:11.378Z,12.73
2022-10-13T18:32:14.652Z,14.57
2022-10-13T18:34:18.804Z,12.83
2022-10-13T18:36:24.895Z,11.40
2022-10-13T18:38:28.909Z,11.70
2022-10-13T18:40:32.241Z,11.77
2022-10-13T18:42:36.895Z,11.80
2022-10-13T18:44:40.197Z,16.97
2022-10-13T18:46:43.576Z,13.70
2022-10-13T18:48:47.369Z,12.53
2022-10-13T18:50:50.704Z,13.60
2022-10-13T18:52:54.069Z,15.40
2022-10-13T18:54:57.385Z,12.07
2022-10-13T18:57:00.795Z,13.00
2022-10-13T18:59:07.732Z,15.70
2022-10-13T19:01:13.392Z,16.90
2022-10-13T19:03:16.805Z,12.80
2022-10-13T19:05:21.564Z,15.33
2022-10-13T19:07:25.035Z,26.00
2022-10-13T19:09:31.139Z,17.93
2022-10-13T19:11:35.390Z,15.63
2022-10-13T19:13:39.148Z,15.10
2022-10-13T19:15:44.191Z,15.97
2022-10-13T19:17:47.583Z,17.47
2022-10-13T19:19:50.992Z,13.13
2022-10-13T19:21:54.342Z,12.90
2022-10-13T19:24:00.259Z,11.60
2022-10-13T19:26:12.463Z,13.60
2022-10-13T19:28:18.456Z,15.17
2022-10-13T19:30:21.862Z,11.83
2022-10-13T19:32:31.300Z,11.90
2022-10-13T19:34:34.778Z,17.97
2022-10-13T19:36:40.808Z,16.93
2022-10-13T19:38:44.198Z,14.77
2022-10-13T19:40:49.610Z,15.03
2022-10-13T19:42:53.004Z,14.07
2022-10-13T19:44:56.355Z,13.00
2022-10-13T19:46:59.684Z,9.60
2022-10-13T19:49:04.655Z,10.80
2022-10-13T19:51:10.354Z,10.43
2022-10-13T19:53:14.168Z,10.30
2022-10-13T19:55:17.627Z,10.17
2022-10-13T19:57:21.145Z,9.50
2022-10-13T19:59:25.121Z,9.30
2022-10-13T20:01:29.150Z,12.80
2022-10-13T20:03:34.021Z,8.80
2022-10-13T20:05:40.985Z,8.23
2022-10-13T20:07:44.320Z,7.03
2022-10-13T20:09:47.741Z,9.57
2022-10-13T20:11:52.323Z,7.57
2022-10-13T20:13:55.697Z,8.80
2022-10-13T20:15:59.073Z,8.53
2022-10-13T20:18:02.445Z,7.70
2022-10-13T20:20:07.811Z,8.10
2022-10-13T20:22:12.615Z,8.60
2022-10-13T20:24:16.008Z,10.10
2022-10-13T20:26:20.594Z,6.97
2022-10-13T20:28:24.054Z,7.57
2022-10-13T20:30:27.598Z,7.47
2022-10-13T20:32:30.986Z,5.43
2022-10-13T20:34:34.638Z,5.60
2022-10-13T20:36:39.238Z,6.57
2022-10-13T20:38:44.360Z,8.30
2022-10-13T20:40:49.340Z,7.47
2022-10-13T20:42:53.551Z,9.23
2022-10-13T20:44:57.706Z,6.87
2022-10-13T20:47:01.171Z,6.50
2022-10-13T20:49:11.100Z,8.70
2022-10-13T20:51:18.099Z,6.00
2022-10-13T20:53:22.050Z,5.73
2022-10-13T20:55:27.287Z,5.83
2022-10-13T20:57:30.694Z,6.07
2022-10-13T20:59:34.046Z,5.47
2022-10-13T21:01:37.965Z,6.97
2022-10-13T21:03:41.603Z,6.43
2022-10-13T21:05:44.994Z,9.50
2022-10-13T21:07:48.412Z,8.50
2022-10-13T21:09:53.945Z,6.90
2022-10-13T21:11:58.819Z,6.40
2022-10-13T21:14:06.402Z,5.93
2022-10-13T21:16:11.834Z,5.60
2022-10-13T21:18:16.125Z,7.67
2022-10-13T21:20:19.510Z,7.40
2022-10-13T21:22:22.903Z,6.33
2022-10-13T21:24:26.663Z,7.13
2022-10-13T21:26:31.804Z,5.87
2022-10-13T21:28:38.789Z,7.40
2022-10-13T21:30:42.307Z,7.60
2022-10-13T21:32:45.861Z,5.50
2022-10-13T21:34:49.671Z,6.73
2022-10-13T21:36:55.248Z,6.27
2022-10-13T21:39:00.889Z,6.70
2022-10-13T21:41:05.626Z,5.87
2022-10-13T21:43:09.163Z,6.70
2022-10-13T21:45:13.897Z,6.27
2022-10-13T21:47:18.104Z,6.90
2022-10-13T21:49:21.713Z,6.67
2022-10-13T21:51:29.182Z,7.53
2022-10-13T21:53:32.537Z,6.33
2022-10-13T21:55:36.619Z,6.90
2022-10-13T21:57:40.012Z,6.83
2022-10-13T21:59:43.390Z,8.67
2022-10-13T22:01:48.105Z,8.20
2022-10-13T22:03:54.656Z,7.70
2022-10-13T22:06:05.990Z,7.13
2022-10-13T22:08:09.349Z,8.53
2022-10-13T22:10:12.837Z,8.33
2022-10-13T22:12:16.257Z,9.50
2022-10-13T22:14:19.751Z,8.20
2022-10-13T22:16:24.599Z,10.07
2022-10-13T22:18:29.312Z,10.03
2022-10-13T22:20:36.656Z,10.23
2022-10-13T22:22:40.003Z,8.67
2022-10-13T22:24:43.352Z,8.63
2022-10-13T22:26:48.274Z,7.77
2022-10-13T22:28:52.336Z,9.50
2022-10-13T22:30:55.783Z,8.53
2022-10-13T22:32:59.132Z,7.30
2022-10-13T22:35:03.862Z,7.30
2022-10-13T22:37:07.164Z,7.17
2022-10-13T22:39:11.733Z,6.97
2022-10-13T22:41:16.243Z,9.90
2022-10-13T22:43:19.568Z,6.93
2022-10-13T22:45:22.939Z,7.30
2022-10-13T22:47:26.569Z,6.80
2022-10-13T22:49:30.002Z,7.17
2022-10-13T22:51:36.502Z,10.60
2022-10-13T22:53:40.307Z,8.90
2022-10-13T22:55:43.870Z,9.20
2022-10-13T22:57:47.207Z,9.70
2022-10-13T22:59:50.491Z,10.00
2022-10-13T23:01:53.768Z,9.67
2022-10-13T23:03:59.066Z,10.10
2022-10-13T23:06:02.497Z,9.53
2022-10-13T23:08:07.298Z,9.20
2022-10-13T23:10:11.045Z,9.30
2022-10-13T23:12:14.403Z,10.53
2022-10-13T23:14:17.722Z,10.23
2022-10-13T23:16:23.185Z,9.30
2022-10-13T23:18:26.526Z,9.70
2022-10-13T23:20:29.808Z,10.20
2022-10-13T23:22:33.132Z,9.00
2022-10-13T23:24:37.863Z,10.13
2022-10-13T23:26:41.189Z,10.40
2022-10-13T23:28:44.850Z,9.10
2022-10-13T23:30:48.198Z,9.10
2022-10-13T23:32:52.778Z,12.27
2022-10-13T23:34:56.163Z,11.13
2022-10-13T23:37:05.665Z,9.97
2022-10-13T23:39:09.242Z,13.40
2022-10-13T23:41:15.473Z,10.00
2022-10-13T23:43:19.095Z,10.57
2022-10-13T23:45:22.437Z,10.60
2022-10-13T23:47:25.816Z,12.90
2022-10-13T23:49:29.566Z,11.00
2022-10-13T23:51:32.996Z,11.33
2022-10-13T23:53:37.057Z,13.07
2022-10-13T23:55:41.204Z,13.80
2022-10-13T23:57:45.856Z,16.30
2022-10-13T23:59:50.421Z,20.27
